Time;durP1;ratioP1;P1;durP2;ratioP2;P2;SDS_P1;SDS_P2;PMS_P1;PMS_P2;Temp;Humidity;BMP_temperature;BMP_pressure;BME280_temperature;BME280_humidity;BME280_pressure;Samples;Min_cycle;Max_cycle;Signal;HPM_P1;HPM_P2
2024/04/01 00:02:05;;;;;;;1.33;1.00;;;;;;;13.48;100.00;94072.84;5018875;28;20247;-72
2024/04/01 00:04:30;;;;;;;2.13;1.20;;;;;;;13.55;100.00;94065.50;5017401;28;20202;-73
2024/04/01 00:06:57;;;;;;;2.20;1.00;;;;;;;13.57;100.00;94066.06;5021128;28;20201;-73
2024/04/01 00:09:23;;;;;;;0.63;0.63;;;;;;;13.54;100.00;94063.94;5018077;28;20618;-72
2024/04/01 00:11:50;;;;;;;3.67;0.70;;;;;;;13.60;100.00;94076.16;5020294;28;20225;-73
2024/04/01 00:14:17;;;;;;;2.53;0.73;;;;;;;13.46;100.00;94090.78;5017817;28;20204;-71
2024/04/01 00:16:43;;;;;;;1.70;0.90;;;;;;;13.41;100.00;94082.78;5021679;28;20601;-72
2024/04/01 00:19:09;;;;;;;0.97;0.70;;;;;;;13.43;100.00;94080.72;5019541;28;20228;-73
2024/04/01 00:21:35;;;;;;;0.80;0.80;;;;;;;13.49;100.00;94079.75;5019662;28;21157;-71
2024/04/01 00:24:01;;;;;;;1.37;0.70;;;;;;;13.49;100.00;94077.09;5020921;28;20355;-73
2024/04/01 00:26:27;;;;;;;2.00;0.90;;;;;;;13.48;100.00;94061.47;5018487;28;20202;-72
2024/04/01 00:28:55;;;;;;;1.07;0.67;;;;;;;13.65;100.00;94057.69;5018552;28;20726;-73
2024/04/01 00:31:29;;;;;;;3.70;1.23;;;;;;;13.35;100.00;94055.75;5017540;28;20201;-72
2024/04/01 00:33:55;;;;;;;6.30;1.00;;;;;;;13.47;100.00;94044.78;5027616;28;20586;-73
2024/04/01 00:36:21;;;;;;;0.80;0.80;;;;;;;13.44;100.00;94040.00;5023101;28;20568;-73
2024/04/01 00:38:48;;;;;;;4.47;0.93;;;;;;;13.42;100.00;94042.06;5019636;28;20650;-72
2024/04/01 00:41:13;;;;;;;1.73;0.97;;;;;;;13.25;100.00;94032.63;5020286;28;20676;-71
2024/04/01 00:43:40;;;;;;;3.13;1.03;;;;;;;13.34;100.00;94032.97;5018762;28;20201;-74
2024/04/01 00:46:07;;;;;;;2.83;0.60;;;;;;;13.41;100.00;94031.75;5019113;28;21575;-73
2024/04/01 00:48:33;;;;;;;1.33;0.83;;;;;;;13.32;100.00;94025.28;5020013;28;20202;-73
2024/04/01 00:51:00;;;;;;;1.87;1.10;;;;;;;13.19;100.00;94014.28;5019487;28;20356;-71
2024/04/01 00:53:26;;;;;;;1.67;0.93;;;;;;;13.15;100.00;94007.88;5016976;28;20594;-72
2024/04/01 00:55:53;;;;;;;2.40;0.90;;;;;;;13.01;100.00;93996.09;5020763;28;20479;-71
2024/04/01 00:58:20;;;;;;;0.93;0.60;;;;;;;13.22;100.00;93982.84;5021715;28;20491;-72
2024/04/01 01:00:48;;;;;;;1.17;0.80;;;;;;;13.23;100.00;93973.09;5022072;28;20205;-73
2024/04/01 01:03:16;;;;;;;1.20;1.00;;;;;;;13.14;100.00;93977.22;5018596;28;20205;-73
2024/04/01 01:05:43;;;;;;;1.73;0.93;;;;;;;13.13;100.00;93968.47;5020042;28;20209;-72
2024/04/01 01:08:11;;;;;;;2.20;1.00;;;;;;;13.01;100.00;93945.88;5024180;28;20623;-73
2024/04/01 01:10:37;;;;;;;2.47;1.23;;;;;;;13.03;100.00;93935.84;5022280;28;20222;-71
2024/04/01 01:13:04;;;;;;;3.07;0.80;;;;;;;12.95;100.00;93938.91;5022756;28;20275;-72
2024/04/01 01:15:30;;;;;;;1.00;0.80;;;;;;;12.93;100.00;93915.38;5025313;28;20216;-71
2024/04/01 01:17:56;;;;;;;1.00;0.80;;;;;;;12.98;100.00;93909.34;5022984;28;20208;-71
2024/04/01 01:20:23;;;;;;;2.87;0.70;;;;;;;13.17;100.00;93906.09;5024194;28;20602;-71
2024/04/01 01:22:52;;;;;;;1.40;0.80;;;;;;;13.02;100.00;93903.31;5024752;28;20275;-71
2024/04/01 01:25:17;;;;;;;0.60;0.60;;;;;;;12.97;100.00;93910.38;5023671;28;20202;-72
2024/04/01 01:27:44;;;;;;;1.37;0.93;;;;;;;12.91;100.00;93900.81;5021656;28;20208;-71
2024/04/01 01:30:15;;;;;;;3.10;0.77;;;;;;;12.95;100.00;93901.91;5022465;28;20482;-71
2024/04/01 01:32:45;;;;;;;0.70;0.60;;;;;;;12.83;100.00;93899.38;5021703;28;20591;-72
2024/04/01 01:35:11;;;;;;;1.30;0.80;;;;;;;12.67;100.00;93903.91;5022355;28;20200;-72
2024/04/01 01:37:38;;;;;;;0.73;0.70;;;;;;;12.72;100.00;93904.78;5024814;28;21378;-71
2024/04/01 01:40:06;;;;;;;3.43;0.70;;;;;;;12.81;100.00;93895.38;5022920;28;20237;-72
2024/04/01 01:42:34;;;;;;;4.40;1.40;;;;;;;12.46;100.00;93902.84;5024929;28;20206;-72
2024/04/01 01:44:59;;;;;;;1.87;0.90;;;;;;;12.22;100.00;93896.19;5022803;28;20217;-72
2024/04/01 01:47:26;;;;;;;2.83;1.13;;;;;;;12.22;100.00;93882.97;5025351;28;20205;-72
2024/04/01 01:49:51;;;;;;;1.97;1.10;;;;;;;12.40;100.00;93881.91;5019723;28;20530;-73
2024/04/01 01:52:18;;;;;;;1.90;1.07;;;;;;;12.38;100.00;93874.22;5020543;28;20233;-72
2024/04/01 01:54:43;;;;;;;1.50;1.00;;;;;;;12.26;100.00;93876.16;5021303;28;20665;-72
2024/04/01 01:57:12;;;;;;;1.43;1.00;;;;;;;12.51;100.00;93873.06;5022552;28;20205;-71
2024/04/01 01:59:37;;;;;;;2.70;1.27;;;;;;;12.16;100.00;93861.25;5019974;28;20570;-71
2024/04/01 02:02:04;;;;;;;3.00;1.33;;;;;;;11.98;100.00;93835.13;5023056;28;20275;-72
2024/04/01 02:04:29;;;;;;;1.20;0.90;;;;;;;12.13;100.00;93843.25;5022114;28;20198;-73
2024/04/01 02:06:56;;;;;;;3.47;1.60;;;;;;;12.04;100.00;93828.88;5022180;28;20205;-72
2024/04/01 02:09:22;;;;;;;2.67;1.23;;;;;;;12.00;100.00;93838.31;5019161;28;20232;-72
2024/04/01 02:11:49;;;;;;;3.50;1.17;;;;;;;12.17;100.00;93851.22;5028801;28;20209;-73
2024/04/01 02:14:16;;;;;;;2.60;1.30;;;;;;;12.19;100.00;93870.28;5023161;28;20679;-71
2024/04/01 02:16:42;;;;;;;1.63;0.93;;;;;;;12.34;100.00;93867.81;5020085;28;20283;-72
2024/04/01 02:19:08;;;;;;;2.27;1.43;;;;;;;12.43;100.00;93869.00;5021772;28;20328;-73
2024/04/01 02:21:34;;;;;;;2.80;1.40;;;;;;;12.43;100.00;93882.19;5023245;28;20202;-73
2024/04/01 02:24:00;;;;;;;5.27;1.40;;;;;;;12.43;100.00;93866.34;5020981;28;20681;-73
2024/04/01 02:26:26;;;;;;;1.27;0.90;;;;;;;12.30;100.00;93861.44;5021853;28;20214;-72
2024/04/01 02:28:52;;;;;;;2.90;1.13;;;;;;;12.35;100.00;93843.03;5022994;28;20222;-71
2024/04/01 02:31:20;;;;;;;1.63;1.00;;;;;;;12.46;100.00;93818.34;5020727;28;20202;-72
2024/04/01 02:33:45;;;;;;;2.47;1.20;;;;;;;12.30;100.00;93811.25;5021276;28;20466;-71
2024/04/01 02:36:12;;;;;;;1.77;1.30;;;;;;;12.09;100.00;93821.81;5023426;28;20205;-71
2024/04/01 02:38:38;;;;;;;2.13;1.43;;;;;;;12.08;100.00;93824.69;5018755;28;20781;-71
2024/04/01 02:41:05;;;;;;;2.87;1.33;;;;;;;12.11;100.00;93803.13;5020436;28;20960;-71
2024/04/01 02:43:30;;;;;;;3.33;1.00;;;;;;;12.06;100.00;93789.84;5023539;28;20681;-72
2024/04/01 02:45:57;;;;;;;1.20;1.00;;;;;;;11.58;100.00;93793.16;5019165;28;20202;-72
2024/04/01 02:48:24;;;;;;;3.63;1.27;;;;;;;11.96;100.00;93795.00;5022647;28;20198;-71
2024/04/01 02:50:50;;;;;;;2.03;1.30;;;;;;;11.75;100.00;93819.50;5020794;28;20313;-72
2024/04/01 02:53:16;;;;;;;2.13;1.60;;;;;;;11.69;100.00;93825.75;5025202;28;20225;-72
2024/04/01 02:55:42;;;;;;;3.17;1.40;;;;;;;11.81;100.00;93819.34;5020315;28;20205;-72
2024/04/01 02:58:08;;;;;;;1.30;1.17;;;;;;;11.93;100.00;93812.09;5023959;28;20208;-72
2024/04/01 03:00:34;;;;;;;4.30;1.70;;;;;;;11.75;100.00;93798.41;5019841;28;20387;-72
2024/04/01 03:03:01;;;;;;;3.57;1.10;;;;;;;11.59;100.00;93767.56;5021290;28;20205;-72
2024/04/01 03:05:29;;;;;;;4.43;1.40;;;;;;;11.59;100.00;93764.91;5019454;28;20197;-72
2024/04/01 03:07:55;;;;;;;2.50;1.63;;;;;;;11.57;100.00;93769.66;5022333;28;20663;-72
2024/04/01 03:10:22;;;;;;;2.53;1.67;;;;;;;11.69;100.00;93767.72;5019900;28;20218;-71
2024/04/01 03:12:47;;;;;;;3.43;1.63;;;;;;;11.74;100.00;93773.06;5023282;28;20495;-73
2024/04/01 03:15:16;;;;;;;4.47;1.40;;;;;;;11.69;100.00;93791.44;5024460;28;20271;-72
2024/04/01 03:17:43;;;;;;;5.00;1.30;;;;;;;11.70;100.00;93769.31;5021316;28;20217;-72
2024/04/01 03:20:10;;;;;;;5.10;1.50;;;;;;;11.76;100.00;93760.41;5022156;28;20844;-73
2024/04/01 03:22:38;;;;;;;3.80;1.40;;;;;;;11.63;100.00;93768.66;5019879;28;20216;-71
2024/04/01 03:25:05;;;;;;;2.37;1.60;;;;;;;11.67;100.00;93786.41;5024223;28;20205;-72
2024/04/01 03:27:31;;;;;;;2.53;1.80;;;;;;;11.74;100.00;93787.03;5023482;28;20674;-72
2024/04/01 03:29:58;;;;;;;3.70;1.80;;;;;;;11.68;100.00;93797.75;5025304;28;20225;-72
2024/04/01 03:32:23;;;;;;;3.73;1.67;;;;;;;11.61;100.00;93815.59;5024875;28;20198;-72
2024/04/01 03:34:51;;;;;;;4.20;1.97;;;;;;;11.72;100.00;93812.88;5028602;28;20212;-71
2024/04/01 03:37:17;;;;;;;4.87;1.77;;;;;;;11.74;100.00;93816.06;5021736;28;20205;-72
2024/04/01 03:39:46;;;;;;;3.07;1.60;;;;;;;11.96;100.00;93803.69;5022600;28;20245;-70
2024/04/01 03:42:13;;;;;;;2.53;1.60;;;;;;;11.59;100.00;93823.72;5023556;28;20220;-71
2024/04/01 03:44:40;;;;;;;3.63;1.80;;;;;;;11.53;100.00;93815.97;5028115;28;20540;-72
2024/04/01 03:47:06;;;;;;;3.27;1.30;;;;;;;11.54;100.00;93804.41;5024974;28;20205;-71
2024/04/01 03:49:32;;;;;;;2.70;1.60;;;;;;;11.21;100.00;93809.63;5016881;28;21102;-71
2024/04/01 03:51:58;;;;;;;3.30;1.77;;;;;;;11.24;100.00;93827.63;5025613;28;20205;-71
2024/04/01 03:54:25;;;;;;;3.57;1.87;;;;;;;11.46;100.00;93817.19;5020584;28;20229;-72
2024/04/01 03:56:52;;;;;;;10.03;2.27;;;;;;;11.80;100.00;93809.00;5021981;28;20201;-72
2024/04/01 03:59:19;;;;;;;2.43;1.70;;;;;;;11.63;100.00;93806.41;5020964;28;20286;-71
2024/04/01 04:01:44;;;;;;;5.23;1.97;;;;;;;11.66;100.00;93791.94;5022241;28;20212;-72
2024/04/01 04:04:11;;;;;;;5.97;1.90;;;;;;;11.65;100.00;93799.03;5022764;28;20200;-72
2024/04/01 04:06:37;;;;;;;7.37;1.80;;;;;;;11.65;100.00;93800.88;5019952;28;20668;-71
2024/04/01 04:09:04;;;;;;;2.90;1.50;;;;;;;11.64;100.00;93789.53;5024833;28;20221;-72
2024/04/01 04:11:29;;;;;;;4.50;2.10;;;;;;;11.64;100.00;93801.91;5017923;28;20206;-72
2024/04/01 04:14:05;;;;;;;6.33;1.80;;;;;;;11.92;100.00;93802.59;5021800;28;20224;-71
2024/04/01 04:16:31;;;;;;;6.03;1.87;;;;;;;11.82;100.00;93796.38;5022864;28;20203;-72
2024/04/01 04:18:57;;;;;;;5.00;1.83;;;;;;;11.87;100.00;93797.22;5020705;28;20221;-71
2024/04/01 04:21:24;;;;;;;7.97;3.07;;;;;;;11.92;100.00;93799.94;5019347;28;20201;-72
2024/04/01 04:23:50;;;;;;;5.07;2.00;;;;;;;11.82;100.00;93793.75;5017961;28;20292;-71
2024/04/01 04:26:17;;;;;;;4.00;1.50;;;;;;;11.78;100.00;93790.00;5021447;28;20216;-71
2024/04/01 04:28:42;;;;;;;4.23;1.50;;;;;;;11.78;100.00;93784.72;5018095;28;20232;-72
2024/04/01 04:31:10;;;;;;;5.47;1.80;;;;;;;12.05;100.00;93769.78;5022300;28;20201;-72
2024/04/01 04:33:36;;;;;;;4.00;1.90;;;;;;;11.90;100.00;93769.56;5018888;28;20222;-71
2024/04/01 04:36:03;;;;;;;8.67;1.80;;;;;;;11.92;100.00;93768.28;5023079;28;20556;-71
2024/04/01 04:38:29;;;;;;;5.27;1.90;;;;;;;11.90;100.00;93765.09;5017634;28;20209;-72
2024/04/01 04:40:55;;;;;;;6.67;1.97;;;;;;;11.94;100.00;93768.03;5020928;28;20675;-72
2024/04/01 04:43:21;;;;;;;3.83;2.00;;;;;;;11.88;100.00;93771.66;5023288;28;20652;-73
2024/04/01 04:45:48;;;;;;;2.37;1.70;;;;;;;11.75;100.00;93774.66;5023088;28;20208;-72
2024/04/01 04:48:16;;;;;;;2.50;1.53;;;;;;;11.96;100.00;93771.25;5022378;28;20207;-72
2024/04/01 04:50:42;;;;;;;9.00;2.60;;;;;;;11.68;100.00;93766.91;5025393;28;20212;-72
2024/04/01 04:53:08;;;;;;;5.37;2.10;;;;;;;11.75;100.00;93780.72;5023084;28;20228;-73
2024/04/01 04:55:34;;;;;;;9.23;2.00;;;;;;;11.66;100.00;93774.25;5023646;28;21020;-72
2024/04/01 04:58:00;;;;;;;4.00;2.27;;;;;;;11.84;100.00;93771.34;5024269;28;20213;-71
2024/04/01 05:00:26;;;;;;;7.93;3.33;;;;;;;11.85;100.00;93762.41;5023075;28;21495;-71
2024/04/01 05:02:52;;;;;;;8.83;3.10;;;;;;;11.77;100.00;93768.09;5022020;28;20202;-70
2024/04/01 05:05:20;;;;;;;6.47;2.43;;;;;;;12.01;100.00;93773.94;5022828;28;20672;-72
2024/04/01 05:07:48;;;;;;;7.77;2.63;;;;;;;11.96;100.00;93773.88;5024393;28;20193;-71
2024/04/01 05:10:15;;;;;;;10.90;2.30;;;;;;;12.02;100.00;93770.28;5020616;28;20218;-71
2024/04/01 05:12:42;;;;;;;4.13;2.17;;;;;;;12.05;100.00;93778.47;5022141;28;20197;-72
2024/04/01 05:15:09;;;;;;;2.87;1.87;;;;;;;11.84;100.00;93765.28;5024993;28;20198;-72
2024/04/01 05:17:35;;;;;;;8.70;2.60;;;;;;;11.96;100.00;93773.88;5022514;28;20212;-72
2024/04/01 05:20:01;;;;;;;5.23;1.97;;;;;;;12.01;100.00;93777.38;5021734;28;20222;-71
2024/04/01 05:22:28;;;;;;;5.47;2.10;;;;;;;12.20;100.00;93760.19;5024279;28;20201;-72
2024/04/01 05:24:55;;;;;;;3.37;2.10;;;;;;;12.19;100.00;93775.25;5023248;28;20226;-72
2024/04/01 05:27:21;;;;;;;5.13;2.10;;;;;;;12.23;100.00;93778.97;5023558;28;20206;-72
2024/04/01 05:30:00;;;;;;;5.13;2.40;;;;;;;12.32;100.00;93790.72;5025972;28;20223;-72
2024/04/01 05:32:26;;;;;;;5.57;2.10;;;;;;;12.02;100.00;93796.66;5024688;28;20209;-72
2024/04/01 05:34:52;;;;;;;4.30;2.40;;;;;;;12.07;100.00;93802.00;5022175;28;20705;-71
2024/04/01 05:37:20;;;;;;;7.20;2.40;;;;;;;12.18;100.00;93815.06;5022961;28;20202;-72
2024/04/01 05:39:47;;;;;;;4.33;2.63;;;;;;;12.03;100.00;93830.72;5021458;28;20236;-72
2024/04/01 05:42:13;;;;;;;11.60;2.13;;;;;;;11.63;100.00;93853.06;5024326;28;20213;-71
2024/04/01 05:44:40;;;;;;;3.63;1.87;;;;;;;11.99;100.00;93848.09;5022002;28;20201;-73
2024/04/01 05:47:05;;;;;;;9.63;2.73;;;;;;;12.01;100.00;93842.56;5026130;28;20205;-71
2024/04/01 05:49:32;;;;;;;4.53;2.33;;;;;;;11.87;100.00;93854.50;5021402;28;20229;-73
2024/04/01 05:51:57;;;;;;;5.17;2.30;;;;;;;12.04;100.00;93847.34;5023694;28;20202;-76
2024/04/01 05:54:24;;;;;;;8.87;1.93;;;;;;;11.85;100.00;93857.38;5023910;28;20962;-75
2024/04/01 05:56:51;;;;;;;3.03;1.90;;;;;;;12.30;100.00;93840.31;5021899;28;20202;-73
2024/04/01 05:59:17;;;;;;;5.20;2.17;;;;;;;12.17;100.00;93835.41;5021517;28;20221;-73
2024/04/01 06:01:43;;;;;;;5.17;2.10;;;;;;;11.92;100.00;93842.16;5019779;28;20205;-72
2024/04/01 06:04:09;;;;;;;4.47;2.07;;;;;;;11.82;100.00;93839.38;5023363;28;20201;-74
2024/04/01 06:06:35;;;;;;;2.57;1.73;;;;;;;11.63;100.00;93874.97;5020058;28;20206;-75
2024/04/01 06:09:03;;;;;;;18.53;6.13;;;;;;;11.87;100.00;93920.47;5019900;28;20699;-73
2024/04/01 06:11:28;;;;;;;7.47;3.17;;;;;;;11.95;100.00;93918.22;5021655;28;20634;-74
2024/04/01 06:13:56;;;;;;;3.43;1.63;;;;;;;12.33;100.00;93931.44;5027081;28;20217;-73
2024/04/01 06:16:22;;;;;;;3.17;2.20;;;;;;;12.10;100.00;93944.81;5020831;28;20666;-73
2024/04/01 06:18:48;;;;;;;4.43;2.00;;;;;;;12.16;100.00;93929.88;5023941;28;20718;-76
2024/04/01 06:21:14;;;;;;;4.73;1.80;;;;;;;12.22;100.00;93938.44;5021996;28;20198;-75
2024/04/01 06:23:40;;;;;;;7.10;1.60;;;;;;;12.18;100.00;93958.44;5023322;28;20202;-74
2024/04/01 06:26:06;;;;;;;3.17;1.70;;;;;;;12.12;100.00;93963.06;5024057;28;20219;-74
2024/04/01 06:28:33;;;;;;;2.93;1.90;;;;;;;12.33;100.00;93956.03;5021855;28;20683;-73
2024/04/01 06:30:59;;;;;;;5.20;1.93;;;;;;;12.51;100.00;93971.59;5020911;28;20220;-75
2024/04/01 06:33:26;;;;;;;4.80;1.73;;;;;;;12.35;100.00;93979.53;5021850;28;20649;-76
2024/04/01 06:35:58;;;;;;;4.57;1.60;;;;;;;12.89;100.00;93977.72;5020592;28;20206;-73
2024/04/01 06:38:25;;;;;;;3.97;1.40;;;;;;;12.70;100.00;93988.75;5022640;28;20809;-72
2024/04/01 06:40:50;;;;;;;2.40;1.50;;;;;;;12.44;100.00;94023.00;5021441;28;20202;-73
2024/04/01 06:43:17;;;;;;;1.50;1.03;;;;;;;12.48;100.00;94016.97;5020959;28;20205;-73
2024/04/01 06:45:51;;;;;;;1.97;0.90;;;;;;;13.12;100.00;94027.69;5021480;28;20202;-73
2024/04/01 06:48:19;;;;;;;0.77;0.70;;;;;;;13.19;100.00;94046.03;5020134;28;20570;-73
2024/04/01 06:50:44;;;;;;;1.20;0.83;;;;;;;13.08;100.00;94044.28;5022893;28;20388;-75
2024/04/01 06:53:11;;;;;;;2.07;1.30;;;;;;;12.95;100.00;94049.94;5019260;28;20908;-72
2024/04/01 06:55:37;;;;;;;2.23;1.10;;;;;;;12.92;100.00;94061.00;5021922;28;20868;-72
2024/04/01 06:58:04;;;;;;;2.77;1.53;;;;;;;12.82;100.00;94108.38;5021404;28;20224;-73
2024/04/01 07:00:31;;;;;;;1.60;0.93;;;;;;;12.70;100.00;94094.44;5022550;28;20231;-76
2024/04/01 07:02:58;;;;;;;2.40;1.30;;;;;;;12.52;100.00;94097.34;5021128;28;21203;-75
2024/04/01 07:05:25;;;;;;;0.80;0.80;;;;;;;12.31;100.00;94111.25;5019806;28;20212;-73
2024/04/01 07:07:51;;;;;;;0.57;0.50;;;;;;;12.04;100.00;94140.31;5019282;28;20605;-73
2024/04/01 07:10:17;;;;;;;0.70;0.60;;;;;;;11.90;100.00;94139.00;5021244;28;20220;-73
2024/04/01 07:12:43;;;;;;;1.33;1.07;;;;;;;11.96;100.00;94151.25;5021270;28;20198;-73
2024/04/01 07:15:09;;;;;;;3.70;1.43;;;;;;;11.63;100.00;94159.84;5021040;28;20234;-75
2024/04/01 07:17:36;;;;;;;1.43;0.83;;;;;;;11.69;100.00;94168.66;5023057;28;20663;-73
2024/04/01 07:20:02;;;;;;;2.83;1.40;;;;;;;11.69;100.00;94200.31;5022773;28;20222;-74
2024/04/01 07:22:30;;;;;;;5.53;1.13;;;;;;;11.83;100.00;94207.72;5019476;28;20206;-74
2024/04/01 07:24:56;;;;;;;3.30;1.43;;;;;;;11.93;100.00;94209.78;5020895;28;20204;-74
2024/04/01 07:27:22;;;;;;;4.83;1.20;;;;;;;11.86;100.00;94214.38;5021317;28;20201;-74
2024/04/01 07:29:48;;;;;;;3.20;0.90;;;;;;;11.71;100.00;94219.34;5019268;28;20226;-73
2024/04/01 07:32:14;;;;;;;5.83;1.17;;;;;;;11.68;100.00;94235.63;5021204;28;20288;-73
2024/04/01 07:34:40;;;;;;;4.67;1.27;;;;;;;11.56;100.00;94248.84;5019816;28;20237;-74
2024/04/01 07:37:06;;;;;;;4.47;1.07;;;;;;;11.68;100.00;94272.56;5022579;28;20206;-74
2024/04/01 07:39:33;;;;;;;0.97;0.80;;;;;;;11.74;100.00;94280.38;5018892;28;20235;-73
2024/04/01 07:42:00;;;;;;;2.10;1.13;;;;;;;11.77;100.00;94289.66;5021051;28;20737;-73
2024/04/01 07:44:25;;;;;;;2.43;1.20;;;;;;;11.56;100.00;94311.34;5020216;28;20202;-73
2024/04/01 07:46:52;;;;;;;3.53;1.30;;;;;;;11.54;100.00;94307.34;5021115;28;20212;-73
2024/04/01 07:49:17;;;;;;;2.10;0.77;;;;;;;11.77;100.00;94282.56;5018447;28;20232;-73
2024/04/01 07:51:44;;;;;;;2.43;1.00;;;;;;;11.93;100.00;94266.00;5022841;28;20201;-75
2024/04/01 07:54:09;;;;;;;0.80;0.70;;;;;;;11.85;100.00;94302.50;5021384;28;20245;-74
2024/04/01 07:56:37;;;;;;;4.53;1.23;;;;;;;12.08;100.00;94319.13;5021964;28;20200;-73
2024/04/01 07:59:03;;;;;;;3.30;1.50;;;;;;;11.74;100.00;94334.97;5018704;28;20236;-73
2024/04/01 08:01:31;;;;;;;1.47;0.90;;;;;;;11.78;100.00;94336.13;5020358;28;20202;-73
2024/04/01 08:03:56;;;;;;;3.90;1.40;;;;;;;11.68;100.00;94341.16;5019164;28;20202;-73
2024/04/01 08:06:23;;;;;;;2.80;0.90;;;;;;;11.69;100.00;94363.88;5020341;28;20205;-73
2024/04/01 08:08:48;;;;;;;0.77;0.60;;;;;;;11.48;100.00;94361.78;5020808;28;20217;-73
2024/04/01 08:11:15;;;;;;;0.87;0.60;;;;;;;11.57;100.00;94397.38;5020181;28;20196;-73
2024/04/01 08:13:42;;;;;;;0.43;0.43;;;;;;;11.66;100.00;94391.53;5018591;28;20862;-73
2024/04/01 08:16:08;;;;;;;1.00;0.70;;;;;;;11.42;100.00;94396.13;5021747;28;20227;-73
2024/04/01 08:18:35;;;;;;;0.40;0.40;;;;;;;11.48;100.00;94395.25;5022533;28;20201;-73
2024/04/01 08:21:01;;;;;;;0.50;0.47;;;;;;;11.58;100.00;94401.59;5025949;28;20220;-73
2024/04/01 08:23:29;;;;;;;0.60;0.50;;;;;;;11.29;100.00;94431.44;5024552;28;20212;-73
2024/04/01 08:25:55;;;;;;;0.60;0.50;;;;;;;11.39;100.00;94431.69;5024605;28;20202;-75
2024/04/01 08:28:21;;;;;;;0.30;0.30;;;;;;;11.35;100.00;94419.97;5025469;28;20209;-72
2024/04/01 08:30:49;;;;;;;0.50;0.50;;;;;;;11.39;100.00;94415.88;5026135;28;20200;-73
2024/04/01 08:33:16;;;;;;;0.90;0.57;;;;;;;11.56;100.00;94422.94;5023398;28;20210;-74
2024/04/01 08:35:43;;;;;;;1.73;0.80;;;;;;;11.54;100.00;94402.28;5023951;28;20198;-73
2024/04/01 08:38:08;;;;;;;0.50;0.50;;;;;;;11.55;100.00;94399.41;5022696;28;20212;-74
2024/04/01 08:40:47;;;;;;;0.30;0.30;;;;;;;12.06;100.00;94405.66;5021719;28;20222;-73
2024/04/01 08:43:17;;;;;;;0.40;0.30;;;;;;;11.91;100.00;94420.34;5021903;28;20205;-74
2024/04/01 08:45:45;;;;;;;1.13;0.63;;;;;;;12.21;100.00;94427.13;5024941;28;20213;-73
2024/04/01 08:48:14;;;;;;;0.80;0.60;;;;;;;12.10;100.00;94411.28;5024523;28;20209;-76
2024/04/01 08:50:50;;;;;;;0.63;0.47;;;;;;;11.89;100.00;94427.66;5032685;28;20217;-73
2024/04/01 08:53:23;;;;;;;0.50;0.50;;;;;;;11.94;100.00;94440.97;5035170;28;20201;-76
2024/04/01 08:55:50;;;;;;;0.50;0.40;;;;;;;11.93;100.00;94456.03;5033438;28;20209;-77
2024/04/01 08:58:16;;;;;;;0.27;0.27;;;;;;;11.74;100.00;94474.81;5024775;28;20205;-74
2024/04/01 09:00:42;;;;;;;3.47;1.10;;;;;;;11.84;100.00;94488.25;5026438;28;20205;-76
2024/04/01 09:03:09;;;;;;;0.83;0.47;;;;;;;11.71;100.00;94483.97;5028526;28;20209;-72
2024/04/01 09:05:36;;;;;;;0.40;0.40;;;;;;;11.82;100.00;94485.03;5020650;28;20206;-71
2024/04/01 09:08:02;;;;;;;0.63;0.50;;;;;;;11.94;100.00;94499.03;5023129;28;20205;-71
2024/04/01 09:10:29;;;;;;;0.40;0.40;;;;;;;11.97;100.00;94503.88;5021121;28;20225;-72
2024/04/01 09:12:58;;;;;;;0.50;0.50;;;;;;;11.90;100.00;94492.63;5024783;28;20227;-71
2024/04/01 09:15:25;;;;;;;0.40;0.40;;;;;;;12.00;100.00;94509.50;5023278;28;20372;-72
2024/04/01 09:17:50;;;;;;;0.73;0.40;;;;;;;11.89;100.00;94514.75;5022532;28;20680;-71
2024/04/01 09:20:17;;;;;;;1.53;0.63;;;;;;;12.07;100.00;94522.63;5022850;28;20226;-72
2024/04/01 09:22:44;;;;;;;1.03;0.93;;;;;;;11.97;100.00;94506.53;5022798;28;20206;-72
2024/04/01 09:25:10;;;;;;;0.57;0.40;;;;;;;11.69;100.00;94506.34;5021199;28;20672;-73
2024/04/01 09:27:36;;;;;;;0.30;0.30;;;;;;;11.75;100.00;94521.28;5023118;28;20215;-71
2024/04/01 09:30:03;;;;;;;0.70;0.50;;;;;;;11.92;100.00;94520.41;5021397;28;20225;-73
2024/04/01 09:32:28;;;;;;;1.27;0.50;;;;;;;11.86;100.00;94515.22;5024066;28;21056;-74
2024/04/01 09:34:58;;;;;;;0.30;0.30;;;;;;;12.22;100.00;94519.31;5024878;28;20295;-70
2024/04/01 09:37:24;;;;;;;0.87;0.70;;;;;;;12.08;100.00;94518.94;5021346;28;20206;-72
2024/04/01 09:39:53;;;;;;;0.40;0.40;;;;;;;12.16;100.00;94508.06;5023753;28;20287;-72
2024/04/01 09:42:20;;;;;;;0.30;0.30;;;;;;;11.95;100.00;94525.25;5023147;28;21171;-72
2024/04/01 09:44:46;;;;;;;0.30;0.30;;;;;;;11.89;100.00;94531.41;5022718;28;20217;-72
2024/04/01 09:47:12;;;;;;;0.40;0.40;;;;;;;12.47;100.00;94517.25;5022959;28;20589;-72
2024/04/01 09:49:40;;;;;;;0.43;0.30;;;;;;;12.60;100.00;94524.13;5023411;28;20234;-72
2024/04/01 09:52:07;;;;;;;0.20;0.20;;;;;;;12.41;100.00;94518.19;5021420;28;20228;-71
2024/04/01 09:54:33;;;;;;;4.43;0.40;;;;;;;12.60;100.00;94527.59;5020943;28;20221;-73
2024/04/01 09:57:24;;;;;;;0.20;0.20;;;;;;;12.70;100.00;94522.53;5020821;28;20213;-71
2024/04/01 10:00:10;;;;;;;0.30;0.30;;;;;;;12.76;100.00;94535.59;5025004;28;20225;-73
2024/04/01 10:03:21;;;;;;;0.40;0.40;;;;;;;12.66;100.00;94525.88;5019367;28;20208;-73
2024/04/01 10:06:16;;;;;;;0.43;0.40;;;;;;;12.95;100.00;94554.84;5013826;28;20608;-73
2024/04/01 10:09:07;;;;;;;0.40;0.40;;;;;;;12.73;100.00;94556.44;5021252;28;20625;-73
2024/04/01 10:11:50;;;;;;;0.40;0.40;;;;;;;12.81;100.00;94532.28;5023164;28;20206;-72
2024/04/01 10:14:50;;;;;;;0.30;0.30;;;;;;;13.42;100.00;94518.25;5022019;28;20221;-73
2024/04/01 10:17:52;;;;;;;0.40;0.40;;;;;;;13.14;100.00;94529.88;5023726;28;20201;-73
2024/04/01 10:21:06;;;;;;;0.30;0.30;;;;;;;13.48;100.00;94527.91;5022704;28;20282;-72
2024/04/01 10:24:11;;;;;;;0.27;0.27;;;;;;;13.47;100.00;94526.31;4979038;28;21011;-70
2024/04/01 10:27:14;;;;;;;0.57;0.57;;;;;;;13.87;100.00;94542.16;4980885;28;21410;-72
2024/04/01 10:30:25;;;;;;;0.30;0.30;;;;;;;13.67;100.00;94569.03;5000019;28;20233;-71
2024/04/01 10:33:32;;;;;;;6.50;0.40;;;;;;;13.34;100.00;94578.69;4977890;28;20881;-73
2024/04/01 10:36:10;;;;;;;0.40;0.40;;;;;;;13.75;100.00;94597.00;4978217;28;20763;-73
2024/04/01 10:39:22;;;;;;;0.20;0.20;;;;;;;13.19;100.00;94591.59;5012555;28;20621;-74
2024/04/01 10:42:08;;;;;;;0.30;0.30;;;;;;;13.09;100.00;94606.44;5004976;28;21459;-74
2024/04/01 10:45:17;;;;;;;0.20;0.20;;;;;;;13.23;100.00;94603.31;5023605;28;20339;-72
2024/04/01 10:48:11;;;;;;;0.30;0.30;;;;;;;13.41;100.00;94621.69;5025169;28;20206;-72
2024/04/01 10:51:08;;;;;;;0.30;0.30;;;;;;;13.23;100.00;94616.53;5017069;28;20340;-74
2024/04/01 10:53:56;;;;;;;0.30;0.30;;;;;;;13.34;100.00;94630.78;5024495;28;20201;-74
2024/04/01 10:57:05;;;;;;;0.20;0.20;;;;;;;13.24;100.00;94651.72;5021142;28;20552;-72
2024/04/01 11:00:05;;;;;;;0.53;0.30;;;;;;;13.47;100.00;94629.50;5020664;28;20233;-72
2024/04/01 11:03:16;;;;;;;0.30;0.30;;;;;;;13.58;100.00;94643.72;5019867;28;20203;-72
2024/04/01 11:06:14;;;;;;;0.53;0.40;;;;;;;13.47;100.00;94657.81;5010128;28;20212;-73
2024/04/01 11:08:56;;;;;;;0.50;0.50;;;;;;;13.60;100.00;94649.63;4992488;28;20248;-70
2024/04/01 11:11:35;;;;;;;0.30;0.30;;;;;;;13.60;100.00;94658.34;5023676;28;20203;-70
2024/04/01 11:14:03;;;;;;;0.27;0.27;;;;;;;13.49;100.00;94650.44;5019751;28;20717;-72
2024/04/01 11:16:33;;;;;;;0.50;0.50;;;;;;;13.88;100.00;94645.16;5021783;28;20208;-70
2024/04/01 11:19:16;;;;;;;0.20;0.20;;;;;;;13.96;100.00;94652.72;5019855;28;20222;-71
2024/04/01 11:21:49;;;;;;;0.20;0.20;;;;;;;13.90;98.96;94663.44;5021155;28;20578;-72
2024/04/01 11:24:27;;;;;;;0.60;0.40;;;;;;;13.31;100.00;94671.72;5020314;28;20205;-72
2024/04/01 11:27:10;;;;;;;0.20;0.20;;;;;;;13.54;100.00;94679.66;5022075;28;20197;-71
2024/04/01 11:29:56;;;;;;;0.30;0.30;;;;;;;13.53;100.00;94678.84;5019817;28;20225;-72
2024/04/01 11:32:24;;;;;;;0.30;0.30;;;;;;;13.19;100.00;94686.00;5019178;28;20205;-71
2024/04/01 11:35:04;;;;;;;0.40;0.40;;;;;;;13.28;100.00;94698.66;5021580;28;20217;-72
2024/04/01 11:37:35;;;;;;;0.30;0.30;;;;;;;13.20;100.00;94711.41;5021618;28;20204;-72